CheckWX is a tool to help pilots better visualize weather data.  It is not intended as a substitute for an official pre-flight weather briefing.

00:51:54 UTC

KPHX TAF
Phoenix Sky Harbor International Airport
Phoenix, Arizona, USA
KPHX 242339Z 2500/2606 25009KT P6SM FEW050 FM250200 15006KT P6SM SKC FM250700 27006KT P6SM SKC FM251600 02012G22KT P6SM SKC FM260300 36007KT P6SM SKC

Feb-25@
00:00 UTC

Feb-25 @ 00:00 UTC

Feb-25@
02:00 UTC

Feb-25 @ 02:00 UTC

KPHX 242339Z 2500/2606 25009KT P6SM FEW050
Wind
  • 250° at 9 KTS
Cloud Levels
  • Few at 5,000' AGL

Feb-25@
02:00 UTC

Feb-25 @ 02:00 UTC

Feb-25@
07:00 UTC

Feb-25 @ 07:00 UTC

FM250200 15006KT P6SM SKC

From

From Standard forecast or significant change

Wind
  • 150° at 6 KTS
Cloud Levels
  • Clear skies

Feb-25@
07:00 UTC

Feb-25 @ 07:00 UTC

Feb-25@
16:00 UTC

Feb-25 @ 16:00 UTC

FM250700 27006KT P6SM SKC

From

From Standard forecast or significant change

Wind
  • 270° at 6 KTS
Cloud Levels
  • Clear skies

Feb-25@
16:00 UTC

Feb-25 @ 16:00 UTC

Feb-26@
03:00 UTC

Feb-26 @ 03:00 UTC

FM251600 02012G22KT P6SM SKC

From

From Standard forecast or significant change

Wind
  • 020° at 12 KTS
  • {Gusting to 22 KTS
Cloud Levels
  • Clear skies

Feb-26@
03:00 UTC

Feb-26 @ 03:00 UTC

Feb-26@
06:00 UTC

Feb-26 @ 06:00 UTC

FM260300 36007KT P6SM SKC

From

From Standard forecast or significant change

Wind
  • 360° at 7 KTS
Cloud Levels
  • Clear skies